Terminal Aerodrome Forecast
Issued by NWS Charleston, WV

Current Version | Previous Version | Graphics & Text | Print | Product List | Glossary On
Versions: 1 2 3 4 5 6 7 8 9 10 11 12 13 14 15 16 17 18 19 20 21 22 23 24 25 26 27 28 29 30 31
000
FTUS41 KRLX 210852 AAC
TAFHTS
TAF AMD
KHTS 210852Z 2109/2206 00000KT 1/2SM FG VV003
      TEMPO 2109/2110 1/4SM FG VV001
     FM211000 00000KT 1/4SM FG VV001
     FM211300 00000KT 2SM BR SCT002
     FM211400 00000KT P6SM SCT250
     FM211600 10004KT P6SM SCT040
     FM212000 13005KT P6SM VCTS SCT050CB
     FM220100 00000KT P6SM BKN100=

USA.gov is the U.S. government's official web portal to all federal, state and local government web resources and services.